createdAt,value
2023-08-14T00:01:46.908Z,5.72
2023-08-14T00:04:17.325Z,6.88
2023-08-14T00:06:47.728Z,7.50
2023-08-14T00:09:20.646Z,6.13
2023-08-14T00:11:50.697Z,6.03
2023-08-14T00:14:20.959Z,5.32
2023-08-14T00:16:51.125Z,4.35
2023-08-14T00:19:21.265Z,3.85
2023-08-14T00:21:51.412Z,5.03
2023-08-14T00:24:24.178Z,4.85
2023-08-14T00:26:54.359Z,5.07
2023-08-14T00:29:24.306Z,6.28
2023-08-14T00:31:54.558Z,6.78
2023-08-14T00:34:24.590Z,5.97
2023-08-14T00:36:54.738Z,3.60
2023-08-14T00:39:27.508Z,4.65
2023-08-14T00:41:57.497Z,4.80
2023-08-14T00:44:29.201Z,3.55
2023-08-14T00:47:00.314Z,4.63
2023-08-14T00:49:30.652Z,5.72
2023-08-14T00:52:01.523Z,4.25
2023-08-14T00:54:34.448Z,4.50
2023-08-14T00:57:04.765Z,5.07
2023-08-14T00:59:35.151Z,4.85
2023-08-14T01:02:05.401Z,2.60
2023-08-14T01:04:35.732Z,2.65
2023-08-14T01:07:06.006Z,8.13
2023-08-14T01:09:38.967Z,5.97
2023-08-14T01:12:17.882Z,5.65
2023-08-14T01:14:51.113Z,5.43
2023-08-14T01:17:22.878Z,4.63
2023-08-14T01:19:53.980Z,3.15
2023-08-14T01:22:33.896Z,5.45
2023-08-14T01:25:32.561Z,4.97
2023-08-14T01:28:03.445Z,5.38
2023-08-14T01:30:34.228Z,5.32
2023-08-14T01:33:04.651Z,8.45
2023-08-14T01:35:38.369Z,5.18
2023-08-14T01:38:18.018Z,5.80
2023-08-14T01:40:58.865Z,5.97
2023-08-14T01:43:33.434Z,5.82
2023-08-14T01:46:03.998Z,8.05
2023-08-14T01:48:35.771Z,5.72
2023-08-14T01:51:06.720Z,6.25
2023-08-14T01:53:37.822Z,4.53
2023-08-14T01:56:10.999Z,6.50
2023-08-14T01:58:41.119Z,7.90
2023-08-14T02:01:11.402Z,7.47
2023-08-14T02:03:41.690Z,7.20
2023-08-14T02:06:11.886Z,7.93
2023-08-14T02:08:42.029Z,4.28
2023-08-14T02:11:15.032Z,8.23
2023-08-14T02:13:45.228Z,5.50
2023-08-14T02:16:16.112Z,7.22
2023-08-14T02:18:46.233Z,6.82
2023-08-14T02:21:17.532Z,7.50
2023-08-14T02:23:47.737Z,7.80
2023-08-14T02:26:20.519Z,7.50
2023-08-14T02:28:50.606Z,7.47
2023-08-14T02:31:21.028Z,8.32
2023-08-14T02:33:51.175Z,7.22
2023-08-14T02:36:21.187Z,7.70
2023-08-14T02:38:51.408Z,9.68
2023-08-14T02:41:24.250Z,12.25
2023-08-14T02:43:54.499Z,7.70
2023-08-14T02:46:24.609Z,7.50
2023-08-14T02:48:54.842Z,9.77
2023-08-14T02:51:24.938Z,8.15
2023-08-14T02:53:55.104Z,7.75
2023-08-14T02:56:27.786Z,9.02
2023-08-14T02:58:58.056Z,9.45
2023-08-14T03:01:28.227Z,8.18
2023-08-14T03:03:58.553Z,7.82
2023-08-14T03:06:31.205Z,8.20
2023-08-14T03:09:01.969Z,7.97
2023-08-14T03:11:34.890Z,9.25
2023-08-14T03:14:05.174Z,10.55
2023-08-14T03:16:35.388Z,9.73
2023-08-14T03:19:05.616Z,9.50
2023-08-14T03:21:35.996Z,9.57
2023-08-14T03:24:07.301Z,8.18
2023-08-14T03:26:40.588Z,9.50
2023-08-14T03:29:11.060Z,10.55
2023-08-14T03:31:41.208Z,7.88
2023-08-14T03:34:13.025Z,9.73
2023-08-14T03:36:43.266Z,8.63
2023-08-14T03:39:14.740Z,8.02
2023-08-14T03:41:47.911Z,8.50
2023-08-14T03:44:18.111Z,6.10
2023-08-14T03:46:48.314Z,6.68
2023-08-14T03:49:19.442Z,9.32
2023-08-14T03:51:49.617Z,6.22
2023-08-14T03:54:19.658Z,7.90
2023-08-14T03:56:52.644Z,8.02
2023-08-14T03:59:22.746Z,6.05
2023-08-14T04:01:53.037Z,9.07
2023-08-14T04:04:23.160Z,7.55
2023-08-14T04:06:53.336Z,8.23
2023-08-14T04:09:23.556Z,7.80
2023-08-14T04:11:56.249Z,8.02
2023-08-14T04:14:27.480Z,6.35
2023-08-14T04:16:58.081Z,9.73
2023-08-14T04:19:28.231Z,7.22
2023-08-14T04:21:58.449Z,8.82
2023-08-14T04:24:28.769Z,8.82
2023-08-14T04:27:01.753Z,6.20
2023-08-14T04:29:31.929Z,8.25
2023-08-14T04:32:03.364Z,6.97
2023-08-14T04:34:33.450Z,6.70
2023-08-14T04:37:03.536Z,6.25
2023-08-14T04:39:33.664Z,8.68
2023-08-14T04:42:08.215Z,6.72
2023-08-14T04:44:38.512Z,6.70
2023-08-14T04:47:08.829Z,6.20
2023-08-14T04:49:39.016Z,4.95
2023-08-14T04:52:10.216Z,6.32
2023-08-14T04:54:40.689Z,6.95
2023-08-14T04:57:13.379Z,6.68
2023-08-14T04:59:43.399Z,7.57
2023-08-14T05:02:14.826Z,7.68
2023-08-14T05:04:45.234Z,6.13
2023-08-14T05:07:16.127Z,7.95
2023-08-14T05:09:46.088Z,8.52
2023-08-14T05:12:19.417Z,8.30
2023-08-14T05:14:50.031Z,7.60
2023-08-14T05:17:21.207Z,8.57
2023-08-14T05:19:51.411Z,9.05
2023-08-14T05:22:21.585Z,9.60
2023-08-14T05:24:51.740Z,6.80
2023-08-14T05:27:24.436Z,7.90
2023-08-14T05:29:54.900Z,6.90
2023-08-14T05:32:25.056Z,7.57
2023-08-14T05:34:55.246Z,9.30
2023-08-14T05:37:25.322Z,8.18
2023-08-14T05:39:55.555Z,9.55
2023-08-14T05:42:28.240Z,7.13
2023-08-14T05:44:58.557Z,7.72
2023-08-14T05:47:28.646Z,9.82
2023-08-14T05:49:58.672Z,7.60
2023-08-14T05:52:28.713Z,6.65
2023-08-14T05:55:00.384Z,8.63
2023-08-14T05:57:33.491Z,10.77
2023-08-14T06:00:03.650Z,9.50
2023-08-14T06:02:42.776Z,7.70
2023-08-14T06:05:13.401Z,10.18
2023-08-14T06:07:43.495Z,8.40
2023-08-14T06:10:14.072Z,9.73
2023-08-14T06:12:50.152Z,7.40
2023-08-14T06:15:21.505Z,8.40
2023-08-14T06:17:52.151Z,6.22
2023-08-14T06:20:22.659Z,8.10
2023-08-14T06:22:52.722Z,8.18
2023-08-14T06:25:23.574Z,10.13
2023-08-14T06:27:56.177Z,8.40
2023-08-14T06:30:26.688Z,7.22
2023-08-14T06:32:56.809Z,6.75
2023-08-14T06:35:26.986Z,10.35
2023-08-14T06:37:57.219Z,7.28
2023-08-14T06:40:27.448Z,7.07
2023-08-14T06:43:00.537Z,11.55
2023-08-14T06:45:30.769Z,8.20
2023-08-14T06:48:01.265Z,7.20
2023-08-14T06:50:31.553Z,9.07
2023-08-14T06:53:01.785Z,6.38
2023-08-14T06:55:31.999Z,7.32
2023-08-14T06:58:05.034Z,7.15
2023-08-14T07:00:35.192Z,9.38
2023-08-14T07:03:05.276Z,6.68
2023-08-14T07:05:35.422Z,10.40
2023-08-14T07:08:05.514Z,7.75
2023-08-14T07:10:35.602Z,9.15
2023-08-14T07:13:09.358Z,8.65
2023-08-14T07:15:41.595Z,9.60
2023-08-14T07:18:12.260Z,6.72
2023-08-14T07:20:42.581Z,6.28
2023-08-14T07:23:13.623Z,7.57
2023-08-14T07:25:43.645Z,7.63
2023-08-14T07:28:16.949Z,5.10
2023-08-14T07:30:47.447Z,7.72
2023-08-14T07:33:17.684Z,7.32
2023-08-14T07:35:49.151Z,6.13
2023-08-14T07:38:19.784Z,7.53
2023-08-14T07:40:50.091Z,4.72
2023-08-14T07:43:23.077Z,8.02
2023-08-14T07:45:53.950Z,5.43
2023-08-14T07:48:24.731Z,6.20
2023-08-14T07:50:56.635Z,5.65
2023-08-14T07:53:27.052Z,3.97
2023-08-14T07:55:57.103Z,4.68
2023-08-14T07:58:29.882Z,6.63
2023-08-14T08:01:00.026Z,5.55
2023-08-14T08:03:30.153Z,4.47
2023-08-14T08:06:01.615Z,4.97
2023-08-14T08:08:31.760Z,6.43
2023-08-14T08:11:02.005Z,3.70
2023-08-14T08:13:34.672Z,4.00
2023-08-14T08:16:05.108Z,5.75
2023-08-14T08:18:35.217Z,3.90
2023-08-14T08:21:05.424Z,5.07
2023-08-14T08:23:35.584Z,4.43
2023-08-14T08:26:05.509Z,5.07
2023-08-14T08:28:38.397Z,4.85
2023-08-14T08:31:08.554Z,4.28
2023-08-14T08:33:38.669Z,6.97
2023-08-14T08:36:09.151Z,4.97
2023-08-14T08:38:41.106Z,5.97
2023-08-14T08:41:15.117Z,4.82
2023-08-14T08:43:47.961Z,4.63
2023-08-14T08:46:18.895Z,4.03
2023-08-14T08:48:52.287Z,5.50
2023-08-14T08:51:22.971Z,10.25
2023-08-14T08:53:54.074Z,5.05
2023-08-14T08:56:24.595Z,4.40
2023-08-14T08:58:57.492Z,5.13
2023-08-14T09:01:27.753Z,5.20
2023-08-14T09:03:58.020Z,7.40
2023-08-14T09:06:28.402Z,5.30
2023-08-14T09:08:58.489Z,3.83
2023-08-14T09:11:29.096Z,5.35
2023-08-14T09:14:02.284Z,4.53
2023-08-14T09:16:33.233Z,3.72
2023-08-14T09:19:04.071Z,3.72
2023-08-14T09:21:34.717Z,4.20
2023-08-14T09:24:04.930Z,3.63
2023-08-14T09:26:35.472Z,5.75
2023-08-14T09:29:13.066Z,4.45
2023-08-14T09:31:46.755Z,4.40
2023-08-14T09:34:20.658Z,5.97
2023-08-14T09:36:51.792Z,5.10
2023-08-14T09:39:24.813Z,3.40
2023-08-14T09:41:54.955Z,2.53
2023-08-14T09:44:28.230Z,3.83
2023-08-14T09:46:58.742Z,2.88
2023-08-14T09:49:31.152Z,3.50
2023-08-14T09:52:01.758Z,4.97
2023-08-14T09:54:37.099Z,4.57
2023-08-14T09:57:09.164Z,4.45
2023-08-14T09:59:42.572Z,3.13
2023-08-14T10:02:18.463Z,4.82
2023-08-14T10:04:50.654Z,2.85
2023-08-14T10:07:21.558Z,3.53
2023-08-14T10:09:55.135Z,5.07
2023-08-14T10:12:33.559Z,3.70
2023-08-14T10:15:09.532Z,5.00
2023-08-14T10:17:51.400Z,3.65
2023-08-14T10:20:24.688Z,4.05
2023-08-14T10:22:55.604Z,3.83
2023-08-14T10:25:26.023Z,5.82
2023-08-14T10:27:56.767Z,4.50
2023-08-14T10:30:30.277Z,3.38
2023-08-14T10:33:01.030Z,4.55
2023-08-14T10:35:31.736Z,5.47
2023-08-14T10:38:10.347Z,6.32
2023-08-14T10:40:58.632Z,5.90
2023-08-14T10:43:36.037Z,3.50
2023-08-14T10:46:12.747Z,4.32
2023-08-14T10:48:43.094Z,3.97
2023-08-14T10:51:16.925Z,3.88
2023-08-14T10:53:48.717Z,2.13
2023-08-14T10:56:19.139Z,4.68
2023-08-14T10:58:51.771Z,3.45
2023-08-14T11:01:24.641Z,3.55
2023-08-14T11:04:08.640Z,4.32
2023-08-14T11:07:10.418Z,4.20
2023-08-14T11:09:42.489Z,2.63
2023-08-14T11:12:13.745Z,3.05
2023-08-14T11:14:45.956Z,5.60
2023-08-14T11:17:19.261Z,4.05
2023-08-14T11:19:50.420Z,3.97
2023-08-14T11:22:20.746Z,5.40
2023-08-14T11:24:52.209Z,5.22
2023-08-14T11:27:22.185Z,3.33
2023-08-14T11:29:54.782Z,4.82
2023-08-14T11:32:30.775Z,4.75
2023-08-14T11:35:00.971Z,2.67
2023-08-14T11:37:30.960Z,3.00
2023-08-14T11:40:06.464Z,4.57
2023-08-14T11:42:36.884Z,4.80
2023-08-14T11:45:08.806Z,3.97
2023-08-14T11:47:48.587Z,4.68
2023-08-14T11:50:20.545Z,3.80
2023-08-14T11:52:54.218Z,5.38
2023-08-14T11:55:24.570Z,3.42
2023-08-14T11:57:55.583Z,2.88
2023-08-14T12:00:33.033Z,4.25
2023-08-14T12:03:07.309Z,5.43
2023-08-14T12:05:37.650Z,5.60
2023-08-14T12:08:08.884Z,3.78
2023-08-14T12:10:39.041Z,4.95
2023-08-14T12:13:09.236Z,3.85
2023-08-14T12:15:42.168Z,3.90
2023-08-14T12:18:24.574Z,4.68
2023-08-14T12:20:55.731Z,4.78
2023-08-14T12:23:26.824Z,5.22
2023-08-14T12:25:58.016Z,4.00
2023-08-14T12:28:29.054Z,3.85
2023-08-14T12:30:59.343Z,3.38
2023-08-14T12:33:32.226Z,4.55
2023-08-14T12:36:02.740Z,5.55
2023-08-14T12:38:32.906Z,4.78
2023-08-14T12:41:03.029Z,4.10
2023-08-14T12:43:39.669Z,7.40
2023-08-14T12:46:12.512Z,4.40
2023-08-14T12:48:45.519Z,3.33
2023-08-14T12:51:15.658Z,6.72
2023-08-14T12:53:45.812Z,3.72
2023-08-14T12:56:18.911Z,2.35
2023-08-14T12:58:50.106Z,3.63
2023-08-14T13:01:24.045Z,3.60
2023-08-14T13:03:59.725Z,4.28
2023-08-14T13:06:31.711Z,3.22
2023-08-14T13:09:02.261Z,4.25
2023-08-14T13:11:32.471Z,3.95
2023-08-14T13:14:02.819Z,2.80
2023-08-14T13:16:33.088Z,5.85
2023-08-14T13:19:06.308Z,3.10
2023-08-14T13:21:36.587Z,2.75
2023-08-14T13:24:07.284Z,4.07
2023-08-14T13:26:39.907Z,2.55
2023-08-14T13:29:11.110Z,3.85
2023-08-14T13:31:41.108Z,3.42
2023-08-14T13:34:13.885Z,4.00
2023-08-14T13:36:44.098Z,3.53
2023-08-14T13:39:15.028Z,5.30
2023-08-14T13:41:45.211Z,3.15
2023-08-14T13:44:15.917Z,2.67
2023-08-14T13:46:46.226Z,4.10
2023-08-14T13:49:18.951Z,3.20
2023-08-14T13:51:49.236Z,4.60
2023-08-14T13:54:19.341Z,3.80
2023-08-14T13:56:49.382Z,3.35
2023-08-14T13:59:19.495Z,7.65
2023-08-14T14:01:49.774Z,2.95
2023-08-14T14:04:22.509Z,2.88
2023-08-14T14:06:52.762Z,3.40
2023-08-14T14:09:23.260Z,3.90
2023-08-14T14:11:53.373Z,5.03
2023-08-14T14:14:23.604Z,4.45
2023-08-14T14:16:55.496Z,3.60
2023-08-14T14:19:28.418Z,4.13
2023-08-14T14:22:03.508Z,5.88
2023-08-14T14:24:33.690Z,2.55
2023-08-14T14:27:04.085Z,4.10
2023-08-14T14:29:46.974Z,3.67
2023-08-14T14:32:37.211Z,3.40
2023-08-14T14:35:11.123Z,2.55
2023-08-14T14:37:41.295Z,3.72
2023-08-14T14:40:12.139Z,4.30
2023-08-14T14:42:42.263Z,5.00
2023-08-14T14:45:28.241Z,3.88
2023-08-14T14:48:03.756Z,5.38
2023-08-14T14:50:36.799Z,4.72
2023-08-14T14:53:07.458Z,3.83
2023-08-14T14:55:37.631Z,3.45
2023-08-14T14:58:08.123Z,4.18
2023-08-14T15:00:38.440Z,3.83
2023-08-14T15:03:09.057Z,2.67
2023-08-14T15:05:41.863Z,2.75
2023-08-14T15:08:12.094Z,4.75
2023-08-14T15:10:42.290Z,4.88
2023-08-14T15:13:12.519Z,3.03
2023-08-14T15:15:42.975Z,3.03
2023-08-14T15:18:13.228Z,3.72
2023-08-14T15:20:46.064Z,5.50
2023-08-14T15:23:16.282Z,5.13
2023-08-14T15:25:46.477Z,3.72
2023-08-14T15:28:16.730Z,3.25
2023-08-14T15:30:47.125Z,3.65
2023-08-14T15:33:17.266Z,2.22
2023-08-14T15:35:50.384Z,2.60
2023-08-14T15:38:20.620Z,2.72
2023-08-14T15:40:51.915Z,3.95
2023-08-14T15:43:22.136Z,3.72
2023-08-14T15:45:52.251Z,3.45
2023-08-14T15:48:23.848Z,2.50
2023-08-14T15:50:57.151Z,3.25
2023-08-14T15:53:27.401Z,3.70
2023-08-14T15:55:57.542Z,3.35
2023-08-14T15:58:27.709Z,3.70
2023-08-14T16:00:58.993Z,3.65
2023-08-14T16:03:29.322Z,3.83
2023-08-14T16:06:03.172Z,3.83
2023-08-14T16:08:33.265Z,2.90
2023-08-14T16:11:03.540Z,2.70
2023-08-14T16:13:34.130Z,4.35
2023-08-14T16:16:04.439Z,4.35
2023-08-14T16:18:35.745Z,1.98
2023-08-14T16:21:08.560Z,3.42
2023-08-14T16:23:38.835Z,3.47
2023-08-14T16:26:08.915Z,4.13
2023-08-14T16:28:39.032Z,4.32
2023-08-14T16:31:09.552Z,3.03
2023-08-14T16:33:39.996Z,3.03
2023-08-14T16:36:12.772Z,2.47
2023-08-14T16:38:42.988Z,2.83
2023-08-14T16:41:13.177Z,3.33
2023-08-14T16:43:43.444Z,2.60
2023-08-14T16:46:13.682Z,3.88
2023-08-14T16:48:43.915Z,2.45
2023-08-14T16:51:16.646Z,4.28
2023-08-14T16:53:46.887Z,3.40
2023-08-14T16:56:16.997Z,3.35
2023-08-14T16:58:47.226Z,3.75
2023-08-14T17:01:18.062Z,3.90
2023-08-14T17:03:48.393Z,3.13
2023-08-14T17:06:21.055Z,2.78
2023-08-14T17:08:51.179Z,3.65
2023-08-14T17:11:22.916Z,2.90
2023-08-14T17:13:53.999Z,3.70
2023-08-14T17:16:24.236Z,2.95
2023-08-14T17:18:54.374Z,3.60
2023-08-14T17:21:27.213Z,2.38
2023-08-14T17:23:57.362Z,3.45
2023-08-14T17:26:27.785Z,2.65
2023-08-14T17:28:57.975Z,2.90
2023-08-14T17:31:28.290Z,3.08
2023-08-14T17:33:58.439Z,4.22
2023-08-14T17:36:31.084Z,2.33
2023-08-14T17:39:01.899Z,4.10
2023-08-14T17:41:32.145Z,2.80
2023-08-14T17:44:02.169Z,3.50
2023-08-14T17:46:32.432Z,3.50
2023-08-14T17:49:02.954Z,2.63
2023-08-14T17:51:35.911Z,2.65
2023-08-14T17:54:07.976Z,3.40
2023-08-14T17:56:38.232Z,3.05
2023-08-14T17:59:08.622Z,3.28
2023-08-14T18:01:38.846Z,2.42
2023-08-14T18:04:09.610Z,2.78
2023-08-14T18:06:42.488Z,2.47
2023-08-14T18:09:12.844Z,5.05
2023-08-14T18:11:43.245Z,3.03
2023-08-14T18:14:13.444Z,4.20
2023-08-14T18:16:43.701Z,2.72
2023-08-14T18:19:29.191Z,3.25
2023-08-14T18:22:02.461Z,2.88
2023-08-14T18:24:32.774Z,5.35
2023-08-14T18:27:02.980Z,3.15
2023-08-14T18:29:33.407Z,2.95
2023-08-14T18:32:03.603Z,3.25
2023-08-14T18:34:33.658Z,4.38
2023-08-14T18:37:06.444Z,4.70
2023-08-14T18:39:36.658Z,2.88
2023-08-14T18:42:07.677Z,3.45
2023-08-14T18:44:37.837Z,4.72
2023-08-14T18:47:08.520Z,4.00
2023-08-14T18:49:41.353Z,3.13
2023-08-14T18:52:14.579Z,3.35
2023-08-14T18:54:45.744Z,3.03
2023-08-14T18:57:15.762Z,2.80
2023-08-14T18:59:49.135Z,3.40
2023-08-14T19:02:19.151Z,4.57
2023-08-14T19:04:49.299Z,2.97
2023-08-14T19:07:22.135Z,3.88
2023-08-14T19:09:52.219Z,4.00
2023-08-14T19:12:22.410Z,4.68
2023-08-14T19:14:53.285Z,2.83
2023-08-14T19:17:23.985Z,4.15
2023-08-14T19:19:54.146Z,5.00
2023-08-14T19:22:27.177Z,3.15
2023-08-14T19:24:57.329Z,3.65
2023-08-14T19:27:27.672Z,3.45
2023-08-14T19:29:58.010Z,2.88
2023-08-14T19:32:29.504Z,4.57
2023-08-14T19:34:59.873Z,3.05
2023-08-14T19:37:32.424Z,3.10
2023-08-14T19:40:02.610Z,3.15
2023-08-14T19:42:32.724Z,4.72
2023-08-14T19:45:02.823Z,3.72
2023-08-14T19:47:33.220Z,3.83
2023-08-14T19:50:03.229Z,2.65
2023-08-14T19:52:35.987Z,3.70
2023-08-14T19:55:06.025Z,4.88
2023-08-14T19:57:36.291Z,2.97
2023-08-14T20:00:07.258Z,3.33
2023-08-14T20:02:38.830Z,3.88
2023-08-14T20:05:10.297Z,3.63
2023-08-14T20:07:43.163Z,3.13
2023-08-14T20:10:13.569Z,2.35
2023-08-14T20:12:43.565Z,2.90
2023-08-14T20:15:14.505Z,2.97
2023-08-14T20:17:44.781Z,2.97
2023-08-14T20:20:18.520Z,2.22
2023-08-14T20:22:51.303Z,4.22
2023-08-14T20:25:21.637Z,5.47
2023-08-14T20:27:51.900Z,3.30
2023-08-14T20:30:22.091Z,3.22
2023-08-14T20:32:52.637Z,3.15
2023-08-14T20:35:22.821Z,4.05
2023-08-14T20:37:55.781Z,3.78
2023-08-14T20:40:26.404Z,2.78
2023-08-14T20:42:57.340Z,3.42
2023-08-14T20:45:27.676Z,2.72
2023-08-14T20:48:00.670Z,2.90
2023-08-14T20:50:31.240Z,3.10
2023-08-14T20:53:04.154Z,5.28
2023-08-14T20:55:34.433Z,2.50
2023-08-14T20:58:04.622Z,2.97
2023-08-14T21:00:34.730Z,2.85
2023-08-14T21:03:04.924Z,2.40
2023-08-14T21:05:35.236Z,3.67
2023-08-14T21:08:08.356Z,4.10
2023-08-14T21:10:40.547Z,3.80
2023-08-14T21:13:11.391Z,2.97
2023-08-14T21:15:41.785Z,3.97
2023-08-14T21:18:12.181Z,2.83
2023-08-14T21:20:45.365Z,3.13
2023-08-14T21:23:18.235Z,4.43
2023-08-14T21:25:48.794Z,3.00
2023-08-14T21:28:19.301Z,2.65
2023-08-14T21:30:49.402Z,2.53
2023-08-14T21:33:19.656Z,3.72
2023-08-14T21:35:50.212Z,4.18
2023-08-14T21:38:22.919Z,3.13
2023-08-14T21:40:53.539Z,3.17
2023-08-14T21:43:26.613Z,2.90
2023-08-14T21:45:56.937Z,2.85
2023-08-14T21:48:27.219Z,3.22
2023-08-14T21:50:57.192Z,3.42
2023-08-14T21:53:29.775Z,5.22
2023-08-14T21:55:59.900Z,2.85
2023-08-14T21:58:29.934Z,4.57
2023-08-14T22:01:00.028Z,4.70
2023-08-14T22:03:30.266Z,4.03
2023-08-14T22:06:04.192Z,3.03
2023-08-14T22:08:37.127Z,3.55
2023-08-14T22:11:07.393Z,3.30
2023-08-14T22:13:37.812Z,2.75
2023-08-14T22:16:08.264Z,4.13
2023-08-14T22:18:38.545Z,3.35
2023-08-14T22:21:08.996Z,3.28
2023-08-14T22:23:41.758Z,3.17
2023-08-14T22:26:12.255Z,4.32
2023-08-14T22:28:42.837Z,3.38
2023-08-14T22:31:15.137Z,4.00
2023-08-14T22:33:46.155Z,3.55
2023-08-14T22:36:16.636Z,3.10
2023-08-14T22:38:49.415Z,2.97
2023-08-14T22:41:19.833Z,4.45
2023-08-14T22:43:49.975Z,3.35
2023-08-14T22:46:20.191Z,3.28
2023-08-14T22:48:50.287Z,3.22
2023-08-14T22:51:20.455Z,3.75
2023-08-14T22:53:53.145Z,3.50
2023-08-14T22:56:23.439Z,3.92
2023-08-14T22:58:53.408Z,4.50
2023-08-14T23:01:23.734Z,3.60
2023-08-14T23:03:53.985Z,3.40
2023-08-14T23:06:24.322Z,3.22
2023-08-14T23:08:57.451Z,3.83
2023-08-14T23:11:27.462Z,3.70
2023-08-14T23:13:57.464Z,4.82
2023-08-14T23:16:27.580Z,3.30
2023-08-14T23:18:57.704Z,3.45
2023-08-14T23:21:27.918Z,4.40
2023-08-14T23:24:00.702Z,4.07
2023-08-14T23:26:30.797Z,3.45
2023-08-14T23:29:01.034Z,4.60
2023-08-14T23:31:31.180Z,4.85
2023-08-14T23:34:01.406Z,3.97
2023-08-14T23:36:31.536Z,3.75
2023-08-14T23:39:05.021Z,4.65
2023-08-14T23:41:36.038Z,3.90
2023-08-14T23:44:06.290Z,3.65
2023-08-14T23:46:36.584Z,5.13
2023-08-14T23:49:07.257Z,5.93
2023-08-14T23:51:37.256Z,3.72
2023-08-14T23:54:10.212Z,3.95
2023-08-14T23:56:40.308Z,3.90
2023-08-14T23:59:10.299Z,4.32
